sensor_id;sensor_type;location;lat;lon;timestamp;pressure;altitude;pressure_sealevel;temperature;humidity
69060;BME280;56135;37.534;-122.308;2022-10-16T00:01:35;101122.59;;;16.28;100.00
69060;BME280;56135;37.534;-122.308;2022-10-16T00:04:01;101113.84;;;16.25;100.00
69060;BME280;56135;37.534;-122.308;2022-10-16T00:06:27;101115.78;;;16.20;100.00
69060;BME280;56135;37.534;-122.308;2022-10-16T00:08:53;101116.63;;;16.20;100.00
69060;BME280;56135;37.534;-122.308;2022-10-16T00:11:24;101120.31;;;16.16;100.00
69060;BME280;56135;37.534;-122.308;2022-10-16T00:13:50;101118.75;;;16.09;100.00
69060;BME280;56135;37.534;-122.308;2022-10-16T00:16:17;101116.16;;;16.06;100.00
69060;BME280;56135;37.534;-122.308;2022-10-16T00:18:43;101116.38;;;15.99;100.00
69060;BME280;56135;37.534;-122.308;2022-10-16T00:21:13;101111.25;;;15.92;100.00
69060;BME280;56135;37.534;-122.308;2022-10-16T00:23:39;101111.44;;;15.86;100.00
69060;BME280;56135;37.534;-122.308;2022-10-16T00:26:06;101115.13;;;15.80;100.00
69060;BME280;56135;37.534;-122.308;2022-10-16T00:28:32;101109.91;;;15.75;100.00
69060;BME280;56135;37.534;-122.308;2022-10-16T00:30:58;101113.56;;;15.71;100.00
69060;BME280;56135;37.534;-122.308;2022-10-16T00:33:24;101121.66;;;15.68;100.00
69060;BME280;56135;37.534;-122.308;2022-10-16T00:35:50;101123.53;;;15.64;100.00
69060;BME280;56135;37.534;-122.308;2022-10-16T00:38:16;101118.31;;;15.61;100.00
69060;BME280;56135;37.534;-122.308;2022-10-16T00:40:41;101121.00;;;15.60;100.00
69060;BME280;56135;37.534;-122.308;2022-10-16T00:43:31;101120.22;;;15.56;100.00
69060;BME280;56135;37.534;-122.308;2022-10-16T00:45:57;101127.34;;;15.54;100.00
69060;BME280;56135;37.534;-122.308;2022-10-16T00:48:23;101126.50;;;15.54;100.00
69060;BME280;56135;37.534;-122.308;2022-10-16T00:50:49;101127.50;;;15.49;100.00
69060;BME280;56135;37.534;-122.308;2022-10-16T00:53:15;101130.25;;;15.46;100.00
69060;BME280;56135;37.534;-122.308;2022-10-16T00:55:42;101126.78;;;15.43;100.00
69060;BME280;56135;37.534;-122.308;2022-10-16T00:58:08;101129.50;;;15.41;100.00
69060;BME280;56135;37.534;-122.308;2022-10-16T01:00:34;101124.28;;;15.37;100.00
69060;BME280;56135;37.534;-122.308;2022-10-16T01:03:01;101133.19;;;15.35;100.00
69060;BME280;56135;37.534;-122.308;2022-10-16T01:05:30;101129.75;;;15.30;100.00
69060;BME280;56135;37.534;-122.308;2022-10-16T01:08:08;101137.84;;;15.27;100.00
69060;BME280;56135;37.534;-122.308;2022-10-16T01:10:45;101145.97;;;15.23;100.00
69060;BME280;56135;37.534;-122.308;2022-10-16T01:13:17;101136.31;;;15.17;100.00
69060;BME280;56135;37.534;-122.308;2022-10-16T01:16:27;101138.16;;;15.15;100.00
69060;BME280;56135;37.534;-122.308;2022-10-16T01:18:37;101137.41;;;15.10;100.00
69060;BME280;56135;37.534;-122.308;2022-10-16T01:21:06;101137.41;;;15.10;100.00
69060;BME280;56135;37.534;-122.308;2022-10-16T01:28:29;101148.31;;;14.99;100.00
69060;BME280;56135;37.534;-122.308;2022-10-16T01:30:58;101144.84;;;14.95;100.00
69060;BME280;56135;37.534;-122.308;2022-10-16T01:33:37;101144.00;;;14.93;100.00
69060;BME280;56135;37.534;-122.308;2022-10-16T01:36:07;101143.22;;;14.90;100.00
69060;BME280;56135;37.534;-122.308;2022-10-16T01:38:36;101145.94;;;14.88;100.00
69060;BME280;56135;37.534;-122.308;2022-10-16T01:41:09;101144.22;;;14.86;100.00
69060;BME280;56135;37.534;-122.308;2022-10-16T01:44:09;101147.81;;;14.83;100.00
69060;BME280;56135;37.534;-122.308;2022-10-16T01:46:27;101150.53;;;14.80;100.00
69060;BME280;56135;37.534;-122.308;2022-10-16T01:48:54;101155.03;;;14.78;100.00
69060;BME280;56135;37.534;-122.308;2022-10-16T01:51:20;101163.88;;;14.78;100.00
69060;BME280;56135;37.534;-122.308;2022-10-16T01:53:49;101161.34;;;14.74;100.00
69060;BME280;56135;37.534;-122.308;2022-10-16T01:56:17;101163.16;;;14.72;100.00
69060;BME280;56135;37.534;-122.308;2022-10-16T01:58:51;101159.66;;;14.70;100.00
69060;BME280;56135;37.534;-122.308;2022-10-16T02:01:19;101155.34;;;14.62;100.00
69060;BME280;56135;37.534;-122.308;2022-10-16T02:03:48;101162.47;;;14.62;100.00
69060;BME280;56135;37.534;-122.308;2022-10-16T02:06:16;101152.78;;;14.59;100.00
69060;BME280;56135;37.534;-122.308;2022-10-16T02:08:41;101152.81;;;14.58;100.00
69060;BME280;56135;37.534;-122.308;2022-10-16T02:11:09;101156.25;;;14.61;100.00
69060;BME280;56135;37.534;-122.308;2022-10-16T02:16:01;101168.69;;;14.61;100.00
69060;BME280;56135;37.534;-122.308;2022-10-16T02:18:27;101175.66;;;14.66;100.00
69060;BME280;56135;37.534;-122.308;2022-10-16T02:23:23;101174.69;;;14.72;100.00
69060;BME280;56135;37.534;-122.308;2022-10-16T02:25:50;101179.19;;;14.68;100.00
69060;BME280;56135;37.534;-122.308;2022-10-16T02:28:19;101186.22;;;14.71;100.00
69060;BME280;56135;37.534;-122.308;2022-10-16T02:30:58;101172.88;;;14.73;100.00
69060;BME280;56135;37.534;-122.308;2022-10-16T02:33:25;101183.53;;;14.73;100.00
69060;BME280;56135;37.534;-122.308;2022-10-16T02:35:52;101185.41;;;14.67;100.00
69060;BME280;56135;37.534;-122.308;2022-10-16T02:38:19;101180.19;;;14.61;100.00
69060;BME280;56135;37.534;-122.308;2022-10-16T02:40:45;101178.47;;;14.59;100.00
69060;BME280;56135;37.534;-122.308;2022-10-16T02:43:11;101180.19;;;14.61;100.00
69060;BME280;56135;37.534;-122.308;2022-10-16T02:45:37;101180.25;;;14.58;100.00
69060;BME280;56135;37.534;-122.308;2022-10-16T02:48:03;101175.03;;;14.55;100.00
69060;BME280;56135;37.534;-122.308;2022-10-16T02:50:29;101176.91;;;14.50;100.00
69060;BME280;56135;37.534;-122.308;2022-10-16T02:52:55;101179.66;;;14.47;100.00
69060;BME280;56135;37.534;-122.308;2022-10-16T02:55:21;101189.38;;;14.46;100.00
69060;BME280;56135;37.534;-122.308;2022-10-16T02:57:47;101184.97;;;14.47;100.00
69060;BME280;56135;37.534;-122.308;2022-10-16T03:00:13;101186.66;;;14.49;100.00
69060;BME280;56135;37.534;-122.308;2022-10-16T03:02:39;101193.84;;;14.46;100.00
69060;BME280;56135;37.534;-122.308;2022-10-16T03:05:05;101185.00;;;14.44;100.00
69060;BME280;56135;37.534;-122.308;2022-10-16T03:07:31;101190.31;;;14.44;100.00
69060;BME280;56135;37.534;-122.308;2022-10-16T03:09:57;101185.03;;;14.42;100.00
69060;BME280;56135;37.534;-122.308;2022-10-16T03:12:28;101190.47;;;14.38;100.00
69060;BME280;56135;37.534;-122.308;2022-10-16T03:14:57;101189.59;;;14.37;100.00
69060;BME280;56135;37.534;-122.308;2022-10-16T03:17:23;101195.84;;;14.34;100.00
69060;BME280;56135;37.534;-122.308;2022-10-16T03:19:49;101188.72;;;14.37;100.00
69060;BME280;56135;37.534;-122.308;2022-10-16T03:22:14;101188.75;;;14.35;100.00
69060;BME280;56135;37.534;-122.308;2022-10-16T03:24:40;101195.88;;;14.33;100.00
69060;BME280;56135;37.534;-122.308;2022-10-16T03:27:06;101195.84;;;14.34;100.00
69060;BME280;56135;37.534;-122.308;2022-10-16T03:29:32;101182.63;;;14.31;100.00
69060;BME280;56135;37.534;-122.308;2022-10-16T03:31:58;101195.00;;;14.32;100.00
69060;BME280;56135;37.534;-122.308;2022-10-16T03:34:24;101201.28;;;14.30;100.00
69060;BME280;56135;37.534;-122.308;2022-10-16T03:36:50;101202.13;;;14.30;100.00
69060;BME280;56135;37.534;-122.308;2022-10-16T03:39:17;101206.63;;;14.28;100.00
69060;BME280;56135;37.534;-122.308;2022-10-16T03:41:42;101200.47;;;14.25;100.00
69060;BME280;56135;37.534;-122.308;2022-10-16T03:44:08;101203.97;;;14.27;100.00
69060;BME280;56135;37.534;-122.308;2022-10-16T03:46:34;101202.13;;;14.30;100.00
69060;BME280;56135;37.534;-122.308;2022-10-16T03:49:00;101201.19;;;14.33;100.00
69060;BME280;56135;37.534;-122.308;2022-10-16T03:51:25;101208.34;;;14.29;100.00
69060;BME280;56135;37.534;-122.308;2022-10-16T03:53:51;101207.47;;;14.29;100.00
69060;BME280;56135;37.534;-122.308;2022-10-16T03:56:17;101206.63;;;14.28;100.00
69060;BME280;56135;37.534;-122.308;2022-10-16T03:58:43;101208.34;;;14.29;100.00
69060;BME280;56135;37.534;-122.308;2022-10-16T04:01:08;101206.63;;;14.28;100.00
69060;BME280;56135;37.534;-122.308;2022-10-16T04:03:34;101215.41;;;14.30;100.00
69060;BME280;56135;37.534;-122.308;2022-10-16T04:06:00;101215.31;;;14.37;100.00
69060;BME280;56135;37.534;-122.308;2022-10-16T04:08:26;101217.09;;;14.34;100.00
69060;BME280;56135;37.534;-122.308;2022-10-16T04:10:51;101213.56;;;14.34;100.00
69060;BME280;56135;37.534;-122.308;2022-10-16T04:13:17;101219.72;;;14.36;100.00
69060;BME280;56135;37.534;-122.308;2022-10-16T04:15:44;101221.44;;;14.39;100.00
69060;BME280;56135;37.534;-122.308;2022-10-16T04:18:10;101225.91;;;14.38;100.00
69060;BME280;56135;37.534;-122.308;2022-10-16T04:20:36;101230.28;;;14.41;100.00
69060;BME280;56135;37.534;-122.308;2022-10-16T04:23:01;101232.94;;;14.41;100.00
69060;BME280;56135;37.534;-122.308;2022-10-16T04:25:27;101226.75;;;14.39;100.00
69060;BME280;56135;37.534;-122.308;2022-10-16T04:27:53;101230.34;;;14.38;100.00
69060;BME280;56135;37.534;-122.308;2022-10-16T04:30:20;101237.34;;;14.40;100.00
69060;BME280;56135;37.534;-122.308;2022-10-16T04:32:52;101236.41;;;14.43;100.00
69060;BME280;56135;37.534;-122.308;2022-10-16T04:35:18;101244.34;;;14.46;100.00
69060;BME280;56135;37.534;-122.308;2022-10-16T04:37:44;101237.19;;;14.48;100.00
69060;BME280;56135;37.534;-122.308;2022-10-16T04:40:10;101243.38;;;14.50;100.00
69060;BME280;56135;37.534;-122.308;2022-10-16T04:42:36;101244.19;;;14.52;100.00
69060;BME280;56135;37.534;-122.308;2022-10-16T04:45:02;101242.47;;;14.51;100.00
69060;BME280;56135;37.534;-122.308;2022-10-16T04:47:28;101247.72;;;14.54;100.00
69060;BME280;56135;37.534;-122.308;2022-10-16T04:49:54;101254.78;;;14.55;100.00
69060;BME280;56135;37.534;-122.308;2022-10-16T04:52:19;101253.88;;;14.55;100.00
69060;BME280;56135;37.534;-122.308;2022-10-16T04:54:46;101260.03;;;14.58;100.00
69060;BME280;56135;37.534;-122.308;2022-10-16T04:57:12;101258.22;;;14.60;100.00
69060;BME280;56135;37.534;-122.308;2022-10-16T04:59:38;101260.84;;;14.63;100.00
69060;BME280;56135;37.534;-122.308;2022-10-16T05:02:04;101259.88;;;14.67;100.00
69060;BME280;56135;37.534;-122.308;2022-10-16T05:04:29;101267.75;;;14.71;100.00
69060;BME280;56135;37.534;-122.308;2022-10-16T05:06:55;101270.41;;;14.72;100.00
69060;BME280;56135;37.534;-122.308;2022-10-16T05:09:21;101273.00;;;14.75;100.00
69060;BME280;56135;37.534;-122.308;2022-10-16T05:11:47;101273.81;;;14.79;100.00
69060;BME280;56135;37.534;-122.308;2022-10-16T05:14:12;101274.63;;;14.81;100.00
69060;BME280;56135;37.534;-122.308;2022-10-16T05:16:38;101272.75;;;14.86;100.00
69060;BME280;56135;37.534;-122.308;2022-10-16T05:19:04;101276.28;;;14.88;100.00
69060;BME280;56135;37.534;-122.308;2022-10-16T05:21:30;101277.06;;;14.92;100.00
69060;BME280;56135;37.534;-122.308;2022-10-16T05:23:55;101282.31;;;14.95;100.00
69060;BME280;56135;37.534;-122.308;2022-10-16T05:26:21;101278.72;;;14.97;100.00
69060;BME280;56135;37.534;-122.308;2022-10-16T05:28:47;101276.88;;;14.99;100.00
69060;BME280;56135;37.534;-122.308;2022-10-16T05:31:13;101277.75;;;15.01;100.00
69060;BME280;56135;37.534;-122.308;2022-10-16T05:33:38;101282.06;;;15.06;100.00
69060;BME280;56135;37.534;-122.308;2022-10-16T05:36:05;101281.13;;;15.08;100.00
69060;BME280;56135;37.534;-122.308;2022-10-16T05:38:33;101281.09;;;15.10;100.00
69060;BME280;56135;37.534;-122.308;2022-10-16T05:40:59;101273.06;;;15.11;100.00
69060;BME280;56135;37.534;-122.308;2022-10-16T05:43:24;101280.97;;;15.16;100.00
69060;BME280;56135;37.534;-122.308;2022-10-16T05:45:56;101273.81;;;15.18;100.00
69060;BME280;56135;37.534;-122.308;2022-10-16T05:48:22;101264.88;;;15.21;100.00
69060;BME280;56135;37.534;-122.308;2022-10-16T05:50:48;101276.38;;;15.23;100.00
69060;BME280;56135;37.534;-122.308;2022-10-16T05:53:14;101268.34;;;15.24;100.00
69060;BME280;56135;37.534;-122.308;2022-10-16T05:55:39;101269.22;;;15.25;100.00
69060;BME280;56135;37.534;-122.308;2022-10-16T05:58:05;101270.91;;;15.27;100.00
69060;BME280;56135;37.534;-122.308;2022-10-16T06:00:31;101272.59;;;15.31;100.00
69060;BME280;56135;37.534;-122.308;2022-10-16T06:02:57;101278.78;;;15.33;100.00
69060;BME280;56135;37.534;-122.308;2022-10-16T06:05:22;101274.25;;;15.35;100.00
69060;BME280;56135;37.534;-122.308;2022-10-16T06:07:48;101279.59;;;15.35;100.00
69060;BME280;56135;37.534;-122.308;2022-10-16T06:10:14;101283.09;;;15.38;100.00
69060;BME280;56135;37.534;-122.308;2022-10-16T06:12:40;101289.34;;;15.37;100.00
69060;BME280;56135;37.534;-122.308;2022-10-16T06:15:05;101289.28;;;15.38;100.00
69060;BME280;56135;37.534;-122.308;2022-10-16T06:17:31;101283.97;;;15.38;100.00
69060;BME280;56135;37.534;-122.308;2022-10-16T06:19:57;101287.56;;;15.37;100.00
69060;BME280;56135;37.534;-122.308;2022-10-16T06:22:23;101281.34;;;15.37;100.00
69060;BME280;56135;37.534;-122.308;2022-10-16T06:24:48;101289.34;;;15.37;100.00
69060;BME280;56135;37.534;-122.308;2022-10-16T06:27:15;101286.59;;;15.40;100.00
69060;BME280;56135;37.534;-122.308;2022-10-16T06:29:40;101289.25;;;15.40;100.00
69060;BME280;56135;37.534;-122.308;2022-10-16T06:32:08;101287.44;;;15.42;100.00
69060;BME280;56135;37.534;-122.308;2022-10-16T06:34:35;101290.06;;;15.43;100.00
69060;BME280;56135;37.534;-122.308;2022-10-16T06:37:00;101284.69;;;15.45;100.00
69060;BME280;56135;37.534;-122.308;2022-10-16T06:39:26;101284.69;;;15.45;100.00
69060;BME280;56135;37.534;-122.308;2022-10-16T06:41:52;101278.47;;;15.46;100.00
69060;BME280;56135;37.534;-122.308;2022-10-16T06:44:17;101283.78;;;15.46;100.00
69060;BME280;56135;37.534;-122.308;2022-10-16T06:46:43;101278.47;;;15.46;100.00
69060;BME280;56135;37.534;-122.308;2022-10-16T06:49:09;101278.41;;;15.47;100.00
69060;BME280;56135;37.534;-122.308;2022-10-16T06:51:35;101276.66;;;15.48;100.00
69060;BME280;56135;37.534;-122.308;2022-10-16T06:54:05;101275.75;;;15.47;100.00
69060;BME280;56135;37.534;-122.308;2022-10-16T06:56:31;101279.22;;;15.51;100.00
69060;BME280;56135;37.534;-122.308;2022-10-16T06:58:57;101282.75;;;15.51;100.00
69060;BME280;56135;37.534;-122.308;2022-10-16T07:01:23;101288.13;;;15.50;100.00
69060;BME280;56135;37.534;-122.308;2022-10-16T07:03:50;101285.41;;;15.51;100.00
69060;BME280;56135;37.534;-122.308;2022-10-16T07:06:16;101290.78;;;15.50;100.00
69060;BME280;56135;37.534;-122.308;2022-10-16T07:08:43;101280.16;;;15.48;100.00
69060;BME280;56135;37.534;-122.308;2022-10-16T07:11:10;101285.44;;;15.50;100.00
69060;BME280;56135;37.534;-122.308;2022-10-16T07:13:37;101277.41;;;15.53;100.00
69060;BME280;56135;37.534;-122.308;2022-10-16T07:16:04;101289.78;;;15.54;100.00
69060;BME280;56135;37.534;-122.308;2022-10-16T07:18:30;101289.84;;;15.52;100.00
69060;BME280;56135;37.534;-122.308;2022-10-16T07:21:07;101282.75;;;15.51;100.00
69060;BME280;56135;37.534;-122.308;2022-10-16T07:23:33;101289.88;;;15.51;100.00
69060;BME280;56135;37.534;-122.308;2022-10-16T07:25:59;101289.84;;;15.52;100.00
69060;BME280;56135;37.534;-122.308;2022-10-16T07:28:25;101288.97;;;15.52;100.00
69060;BME280;56135;37.534;-122.308;2022-10-16T07:30:50;101289.88;;;15.51;100.00
69060;BME280;56135;37.534;-122.308;2022-10-16T07:33:16;101291.63;;;15.52;100.00
69060;BME280;56135;37.534;-122.308;2022-10-16T07:35:49;101294.28;;;15.52;100.00
69060;BME280;56135;37.534;-122.308;2022-10-16T07:38:15;101293.34;;;15.55;100.00
69060;BME280;56135;37.534;-122.308;2022-10-16T07:40:41;101293.34;;;15.55;100.00
69060;BME280;56135;37.534;-122.308;2022-10-16T07:43:07;101295.16;;;15.52;100.00
69060;BME280;56135;37.534;-122.308;2022-10-16T07:45:32;101297.81;;;15.52;100.00
69060;BME280;56135;37.534;-122.308;2022-10-16T07:47:58;101291.69;;;15.50;100.00
69060;BME280;56135;37.534;-122.308;2022-10-16T07:50:24;101294.28;;;15.52;100.00
69060;BME280;56135;37.534;-122.308;2022-10-16T07:52:49;101297.81;;;15.52;100.00
69060;BME280;56135;37.534;-122.308;2022-10-16T07:55:15;101292.44;;;15.54;100.00
69060;BME280;56135;37.534;-122.308;2022-10-16T07:57:42;101291.53;;;15.55;100.00
69060;BME280;56135;37.534;-122.308;2022-10-16T08:00:08;101290.63;;;15.56;100.00
69060;BME280;56135;37.534;-122.308;2022-10-16T08:02:39;101295.13;;;15.54;100.00
69060;BME280;56135;37.534;-122.308;2022-10-16T08:05:05;101296.81;;;15.57;100.00
69060;BME280;56135;37.534;-122.308;2022-10-16T08:07:31;101295.13;;;15.54;100.00
69060;BME280;56135;37.534;-122.308;2022-10-16T08:09:56;101295.88;;;15.59;100.00
69060;BME280;56135;37.534;-122.308;2022-10-16T08:12:25;101304.81;;;15.57;100.00
69060;BME280;56135;37.534;-122.308;2022-10-16T08:14:51;101303.91;;;15.58;100.00
69060;BME280;56135;37.534;-122.308;2022-10-16T08:17:17;101305.72;;;15.57;100.00
69060;BME280;56135;37.534;-122.308;2022-10-16T08:19:46;101310.09;;;15.58;100.00
69060;BME280;56135;37.534;-122.308;2022-10-16T08:22:12;101311.03;;;15.57;100.00
69060;BME280;56135;37.534;-122.308;2022-10-16T08:24:38;101315.44;;;15.58;100.00
69060;BME280;56135;37.534;-122.308;2022-10-16T08:27:04;101320.78;;;15.57;100.00
69060;BME280;56135;37.534;-122.308;2022-10-16T08:29:30;101313.75;;;15.54;100.00
69060;BME280;56135;37.534;-122.308;2022-10-16T08:31:56;101315.47;;;15.57;100.00
69060;BME280;56135;37.534;-122.308;2022-10-16T08:34:22;101309.22;;;15.58;100.00
69060;BME280;56135;37.534;-122.308;2022-10-16T08:36:47;101308.28;;;15.60;100.00
69060;BME280;56135;37.534;-122.308;2022-10-16T08:39:13;101311.84;;;15.59;100.00
69060;BME280;56135;37.534;-122.308;2022-10-16T08:41:51;101310.03;;;15.61;100.00
69060;BME280;56135;37.534;-122.308;2022-10-16T08:49:14;101323.41;;;15.58;100.00
69060;BME280;56135;37.534;-122.308;2022-10-16T08:51:40;101322.50;;;15.59;100.00
69060;BME280;56135;37.534;-122.308;2022-10-16T08:56:38;101326.84;;;15.65;100.00
69060;BME280;56135;37.534;-122.308;2022-10-16T08:59:04;101329.59;;;15.60;100.00
69060;BME280;56135;37.534;-122.308;2022-10-16T09:01:42;101338.53;;;15.58;100.00
69060;BME280;56135;37.534;-122.308;2022-10-16T09:07:20;101347.25;;;15.64;100.00
69060;BME280;56135;37.534;-122.308;2022-10-16T09:19:58;101360.56;;;15.64;100.00
69060;BME280;56135;37.534;-122.308;2022-10-16T09:22:28;101364.13;;;15.63;100.00
69060;BME280;56135;37.534;-122.308;2022-10-16T09:24:59;101360.59;;;15.63;100.00
69060;BME280;56135;37.534;-122.308;2022-10-16T09:27:26;101358.75;;;15.66;100.00
69060;BME280;56135;37.534;-122.308;2022-10-16T09:29:52;101350.75;;;15.66;100.00
69060;BME280;56135;37.534;-122.308;2022-10-16T09:32:18;101351.63;;;15.67;100.00
69060;BME280;56135;37.534;-122.308;2022-10-16T09:34:49;101350.75;;;15.66;100.00
69060;BME280;56135;37.534;-122.308;2022-10-16T09:37:19;101344.47;;;15.69;100.00
69060;BME280;56135;37.534;-122.308;2022-10-16T09:39:48;101346.34;;;15.65;100.00
69060;BME280;56135;37.534;-122.308;2022-10-16T09:42:15;101348.16;;;15.63;100.00
69060;BME280;56135;37.534;-122.308;2022-10-16T09:44:41;101343.66;;;15.65;100.00
69060;BME280;56135;37.534;-122.308;2022-10-16T09:47:20;101350.72;;;15.68;100.00
69060;BME280;56135;37.534;-122.308;2022-10-16T09:49:59;101354.31;;;15.65;100.00
69060;BME280;56135;37.534;-122.308;2022-10-16T09:52:27;101356.09;;;15.66;100.00
69060;BME280;56135;37.534;-122.308;2022-10-16T09:54:54;101357.81;;;15.69;100.00
69060;BME280;56135;37.534;-122.308;2022-10-16T09:57:21;101357.91;;;15.64;100.00
69060;BME280;56135;37.534;-122.308;2022-10-16T09:59:54;101355.19;;;15.66;100.00
69060;BME280;56135;37.534;-122.308;2022-10-16T10:04:55;101366.75;;;15.66;100.00
69060;BME280;56135;37.534;-122.308;2022-10-16T10:07:26;101364.13;;;15.65;100.00
69060;BME280;56135;37.534;-122.308;2022-10-16T10:09:53;101365.84;;;15.66;100.00
69060;BME280;56135;37.534;-122.308;2022-10-16T10:14:46;101372.03;;;15.68;100.00
69060;BME280;56135;37.534;-122.308;2022-10-16T10:17:14;101383.53;;;15.68;100.00
69060;BME280;56135;37.534;-122.308;2022-10-16T10:19:50;101385.34;;;15.68;100.00
69060;BME280;56135;37.534;-122.308;2022-10-16T10:24:43;101384.44;;;15.67;100.00
69060;BME280;56135;37.534;-122.308;2022-10-16T10:27:11;101387.06;;;15.71;100.00
69060;BME280;56135;37.534;-122.308;2022-10-16T10:30:13;101382.63;;;15.70;100.00
69060;BME280;56135;37.534;-122.308;2022-10-16T10:32:48;101379.97;;;15.70;100.00
69060;BME280;56135;37.534;-122.308;2022-10-16T10:37:51;101381.69;;;15.72;100.00
69060;BME280;56135;37.534;-122.308;2022-10-16T10:43:08;101377.31;;;15.70;100.00
69060;BME280;56135;37.534;-122.308;2022-10-16T10:45:44;101370.19;;;15.70;100.00
69060;BME280;56135;37.534;-122.308;2022-10-16T10:50:42;101381.72;;;15.71;100.00
69060;BME280;56135;37.534;-122.308;2022-10-16T10:56:10;101379.97;;;15.70;100.00
69060;BME280;56135;37.534;-122.308;2022-10-16T11:01:25;101385.28;;;15.70;100.00
69060;BME280;56135;37.534;-122.308;2022-10-16T11:06:25;101386.97;;;15.74;100.00
69060;BME280;56135;37.534;-122.308;2022-10-16T11:08:53;101389.63;;;15.74;100.00
69060;BME280;56135;37.534;-122.308;2022-10-16T11:11:25;101383.44;;;15.73;100.00
69060;BME280;56135;37.534;-122.308;2022-10-16T11:14:00;101389.69;;;15.72;100.00
69060;BME280;56135;37.534;-122.308;2022-10-16T11:16:35;101391.47;;;15.72;100.00
69060;BME280;56135;37.534;-122.308;2022-10-16T11:21:29;101390.50;;;15.76;100.00
69060;BME280;56135;37.534;-122.308;2022-10-16T11:24:16;101396.72;;;15.75;100.00
69060;BME280;56135;37.534;-122.308;2022-10-16T11:26:44;101396.72;;;15.75;100.00
69060;BME280;56135;37.534;-122.308;2022-10-16T11:29:20;101391.53;;;15.68;100.00
69060;BME280;56135;37.534;-122.308;2022-10-16T11:32:04;101394.16;;;15.72;100.00
69060;BME280;56135;37.534;-122.308;2022-10-16T11:34:35;101396.81;;;15.72;100.00
69060;BME280;56135;37.534;-122.308;2022-10-16T11:37:12;101397.72;;;15.71;100.00
69060;BME280;56135;37.534;-122.308;2022-10-16T11:39:40;101402.13;;;15.72;100.00
69060;BME280;56135;37.534;-122.308;2022-10-16T11:42:16;101398.53;;;15.73;100.00
69060;BME280;56135;37.534;-122.308;2022-10-16T11:49:59;101405.69;;;15.71;100.00
69060;BME280;56135;37.534;-122.308;2022-10-16T11:55:32;101416.41;;;15.67;100.00
69060;BME280;56135;37.534;-122.308;2022-10-16T11:58:01;101417.25;;;15.70;100.00
69060;BME280;56135;37.534;-122.308;2022-10-16T12:00:31;101412.78;;;15.72;100.00
69060;BME280;56135;37.534;-122.308;2022-10-16T12:03:05;101410.94;;;15.74;100.00
69060;BME280;56135;37.534;-122.308;2022-10-16T12:08:17;101418.16;;;15.68;100.00
69060;BME280;56135;37.534;-122.308;2022-10-16T12:10:44;101418.13;;;15.70;100.00
69060;BME280;56135;37.534;-122.308;2022-10-16T12:18:39;101428.78;;;15.70;100.00
69060;BME280;56135;37.534;-122.308;2022-10-16T12:21:06;101430.50;;;15.73;100.00
69060;BME280;56135;37.534;-122.308;2022-10-16T12:23:53;101437.72;;;15.67;100.00
69060;BME280;56135;37.534;-122.308;2022-10-16T12:26:28;101434.22;;;15.65;100.00
69060;BME280;56135;37.534;-122.308;2022-10-16T12:28:55;101427.91;;;15.70;100.00
69060;BME280;56135;37.534;-122.308;2022-10-16T12:31:22;101435.91;;;15.70;100.00
69060;BME280;56135;37.534;-122.308;2022-10-16T12:33:57;101434.09;;;15.72;100.00
69060;BME280;56135;37.534;-122.308;2022-10-16T12:36:33;101430.53;;;15.71;100.00
69060;BME280;56135;37.534;-122.308;2022-10-16T12:39:00;101438.47;;;15.73;100.00
69060;BME280;56135;37.534;-122.308;2022-10-16T12:41:27;101441.19;;;15.71;100.00
69060;BME280;56135;37.534;-122.308;2022-10-16T12:43:53;101438.56;;;15.70;100.00
69060;BME280;56135;37.534;-122.308;2022-10-16T12:46:24;101433.19;;;15.71;100.00
69060;BME280;56135;37.534;-122.308;2022-10-16T12:48:50;101428.81;;;15.68;100.00
69060;BME280;56135;37.534;-122.308;2022-10-16T12:51:23;101440.28;;;15.72;100.00
69060;BME280;56135;37.534;-122.308;2022-10-16T12:59:35;101452.75;;;15.70;100.00
69060;BME280;56135;37.534;-122.308;2022-10-16T13:04:39;101455.41;;;15.70;100.00
69060;BME280;56135;37.534;-122.308;2022-10-16T13:07:25;101458.06;;;15.72;100.00
69060;BME280;56135;37.534;-122.308;2022-10-16T13:10:02;101457.16;;;15.71;100.00
69060;BME280;56135;37.534;-122.308;2022-10-16T13:12:57;101451.81;;;15.73;100.00
69060;BME280;56135;37.534;-122.308;2022-10-16T13:17:46;101457.13;;;15.74;100.00
69060;BME280;56135;37.534;-122.308;2022-10-16T13:20:18;101457.13;;;15.74;100.00
69060;BME280;56135;37.534;-122.308;2022-10-16T13:22:51;101450.03;;;15.73;100.00
69060;BME280;56135;37.534;-122.308;2022-10-16T13:25:29;101452.75;;;15.72;100.00
69060;BME280;56135;37.534;-122.308;2022-10-16T13:28:03;101456.31;;;15.71;100.00
69060;BME280;56135;37.534;-122.308;2022-10-16T13:30:40;101450.94;;;15.72;100.00
69060;BME280;56135;37.534;-122.308;2022-10-16T13:35:35;101460.69;;;15.73;100.00
69060;BME280;56135;37.534;-122.308;2022-10-16T13:38:05;101462.47;;;15.73;100.00
69060;BME280;56135;37.534;-122.308;2022-10-16T13:40:31;101467.88;;;15.70;100.00
69060;BME280;56135;37.534;-122.308;2022-10-16T13:42:59;101466.09;;;15.68;100.00